PHENX84 YPBH-YAPO
Flight info
| Callsign | PHENX84 |
|---|---|
| Flight time | 0h 20m |
| Altitude | 2000 |
| Route | DCT |
| Aircraft | EC45/L-SDFGRY/C |
Departure
| Time | 2026-04-20 12:19 |
|---|---|
| Airport | Peterborough Airport (YPBH) |
Arrival
| Time | 2026-04-20 12:39 |
|---|---|
| Airport | Apollo Bay Airport (YAPO) |
| Time | Latitude | Longitude | Altitude | Speed | Heading |
|---|---|---|---|---|---|
| 2026-04-20 12:19 | -38.66614 | 143.10132 | 201 ft | 51 kts | 122° |
| 2026-04-20 12:19 | -38.66752 | 143.10375 | 202 ft | 51 kts | 125° |
| 2026-04-20 12:19 | -38.67027 | 143.10814 | 239 ft | 73 kts | 128° |
| 2026-04-20 12:19 | -38.67334 | 143.11330 | 545 ft | 73 kts | 127° |
| 2026-04-20 12:20 | -38.67650 | 143.11829 | 800 ft | 72 kts | 127° |
| 2026-04-20 12:20 | -38.67972 | 143.12316 | 918 ft | 71 kts | 127° |
| 2026-04-20 12:20 | -38.68347 | 143.12894 | 943 ft | 100 kts | 127° |
| 2026-04-20 12:20 | -38.68803 | 143.13580 | 992 ft | 100 kts | 127° |
| 2026-04-20 12:21 | -38.69271 | 143.14230 | 990 ft | 100 kts | 133° |
| 2026-04-20 12:21 | -38.69790 | 143.14868 | 981 ft | 111 kts | 134° |
| 2026-04-20 12:21 | -38.70354 | 143.15551 | 1000 ft | 110 kts | 134° |
| 2026-04-20 12:21 | -38.70935 | 143.16216 | 991 ft | 115 kts | 137° |
| 2026-04-20 12:22 | -38.71556 | 143.16858 | 997 ft | 114 kts | 142° |
| 2026-04-20 12:22 | -38.72205 | 143.17447 | 1001 ft | 115 kts | 142° |
| 2026-04-20 12:22 | -38.72858 | 143.18034 | 1001 ft | 115 kts | 143° |
| 2026-04-20 12:22 | -38.73513 | 143.18624 | 1002 ft | 115 kts | 143° |
| 2026-04-20 12:23 | -38.74144 | 143.19250 | 1004 ft | 115 kts | 139° |
| 2026-04-20 12:23 | -38.74768 | 143.19883 | 1000 ft | 114 kts | 139° |
| 2026-04-20 12:23 | -38.75393 | 143.20517 | 1002 ft | 115 kts | 139° |
| 2026-04-20 12:23 | -38.75950 | 143.21234 | 1006 ft | 113 kts | 129° |
| 2026-04-20 12:24 | -38.76465 | 143.21975 | 1004 ft | 114 kts | 128° |
| 2026-04-20 12:24 | -38.76891 | 143.22816 | 1005 ft | 112 kts | 115° |
| 2026-04-20 12:24 | -38.77193 | 143.23739 | 1003 ft | 114 kts | 104° |
| 2026-04-20 12:24 | -38.77347 | 143.24724 | 1008 ft | 111 kts | 98° |
| 2026-04-20 12:25 | -38.77399 | 143.25711 | 1004 ft | 113 kts | 81° |
| 2026-04-20 12:25 | -38.77195 | 143.26676 | 1007 ft | 112 kts | 72° |
| 2026-04-20 12:25 | -38.76955 | 143.27653 | 1003 ft | 118 kts | 71° |
| 2026-04-20 12:25 | -38.76714 | 143.28632 | 1006 ft | 114 kts | 72° |
| 2026-04-20 12:26 | -38.76466 | 143.29614 | 1006 ft | 116 kts | 72° |
| 2026-04-20 12:26 | -38.76215 | 143.30603 | 1003 ft | 117 kts | 72° |
| 2026-04-20 12:26 | -38.75963 | 143.31591 | 1005 ft | 116 kts | 72° |
| 2026-04-20 12:26 | -38.75735 | 143.32580 | 1003 ft | 116 kts | 80° |
| 2026-04-20 12:27 | -38.75710 | 143.33610 | 1005 ft | 117 kts | 90° |
| 2026-04-20 12:27 | -38.75790 | 143.34642 | 1005 ft | 117 kts | 105° |
| 2026-04-20 12:27 | -38.76121 | 143.35603 | 1005 ft | 119 kts | 115° |
| 2026-04-20 12:27 | -38.76487 | 143.36551 | 1007 ft | 119 kts | 115° |
| 2026-04-20 12:28 | -38.76856 | 143.37495 | 1005 ft | 118 kts | 115° |
| 2026-04-20 12:28 | -38.77222 | 143.38434 | 1005 ft | 117 kts | 115° |
| 2026-04-20 12:28 | -38.77592 | 143.39363 | 1005 ft | 118 kts | 116° |
| 2026-04-20 12:28 | -38.78023 | 143.40250 | 1002 ft | 117 kts | 122° |
| 2026-04-20 12:29 | -38.78470 | 143.41130 | 1009 ft | 117 kts | 121° |
| 2026-04-20 12:29 | -38.78915 | 143.42010 | 1005 ft | 118 kts | 121° |
| 2026-04-20 12:29 | -38.79358 | 143.42888 | 1004 ft | 117 kts | 122° |
| 2026-04-20 12:29 | -38.79798 | 143.43771 | 1005 ft | 117 kts | 120° |
| 2026-04-20 12:30 | -38.80241 | 143.44630 | 1005 ft | 116 kts | 121° |
| 2026-04-20 12:30 | -38.80689 | 143.45486 | 1002 ft | 116 kts | 122° |
| 2026-04-20 12:30 | -38.81156 | 143.46339 | 1007 ft | 118 kts | 124° |
| 2026-04-20 12:30 | -38.81666 | 143.47153 | 1007 ft | 117 kts | 126° |
| 2026-04-20 12:31 | -38.82207 | 143.47936 | 1007 ft | 118 kts | 129° |
| 2026-04-20 12:31 | -38.82765 | 143.48705 | 1009 ft | 118 kts | 130° |
| 2026-04-20 12:31 | -38.83324 | 143.49475 | 1007 ft | 118 kts | 130° |
| 2026-04-20 12:31 | -38.83883 | 143.50240 | 1010 ft | 117 kts | 130° |
| 2026-04-20 12:32 | -38.84443 | 143.51006 | 1006 ft | 117 kts | 130° |
| 2026-04-20 12:32 | -38.84981 | 143.51800 | 1005 ft | 118 kts | 123° |
| 2026-04-20 12:32 | -38.85374 | 143.52716 | 1009 ft | 116 kts | 111° |
| 2026-04-20 12:32 | -38.85584 | 143.53708 | 1003 ft | 116 kts | 100° |
| 2026-04-20 12:33 | -38.85678 | 143.54733 | 1004 ft | 116 kts | 88° |
| 2026-04-20 12:33 | -38.85522 | 143.55735 | 1011 ft | 114 kts | 69° |
| 2026-04-20 12:33 | -38.85166 | 143.56629 | 1005 ft | 115 kts | 57° |
| 2026-04-20 12:33 | -38.84680 | 143.57455 | 1007 ft | 114 kts | 52° |
| 2026-04-20 12:34 | -38.84190 | 143.58232 | 1006 ft | 113 kts | 52° |
| 2026-04-20 12:34 | -38.83682 | 143.59015 | 1006 ft | 114 kts | 50° |
| 2026-04-20 12:34 | -38.83153 | 143.59778 | 1009 ft | 113 kts | 49° |
| 2026-04-20 12:34 | -38.82634 | 143.60512 | 1002 ft | 111 kts | 49° |
| 2026-04-20 12:35 | -38.82105 | 143.61263 | 1003 ft | 114 kts | 49° |
| 2026-04-20 12:35 | -38.81571 | 143.62028 | 1002 ft | 115 kts | 49° |
| 2026-04-20 12:35 | -38.81041 | 143.62787 | 1005 ft | 113 kts | 49° |
| 2026-04-20 12:35 | -38.80510 | 143.63533 | 1004 ft | 114 kts | 49° |
| 2026-04-20 12:36 | -38.79979 | 143.64284 | 1006 ft | 114 kts | 49° |
| 2026-04-20 12:36 | -38.79447 | 143.65040 | 1005 ft | 114 kts | 49° |
| 2026-04-20 12:36 | -38.78920 | 143.65790 | 1006 ft | 112 kts | 49° |
| 2026-04-20 12:36 | -38.78390 | 143.66542 | 1006 ft | 114 kts | 49° |
| 2026-04-20 12:37 | -38.77848 | 143.67283 | 1008 ft | 114 kts | 42° |
| 2026-04-20 12:37 | -38.77190 | 143.67843 | 1005 ft | 114 kts | 33° |
| 2026-04-20 12:37 | -38.76490 | 143.68335 | 940 ft | 115 kts | 27° |
| 2026-04-20 12:37 | -38.75718 | 143.68615 | 884 ft | 117 kts | 10° |
| 2026-04-20 12:38 | -38.74918 | 143.68458 | 804 ft | 117 kts | 328° |
| 2026-04-20 12:38 | -38.74628 | 143.67557 | 597 ft | 113 kts | 260° |
| 2026-04-20 12:38 | -38.75132 | 143.66832 | 452 ft | 109 kts | 202° |
| 2026-04-20 12:38 | -38.75825 | 143.66836 | 371 ft | 89 kts | 167° |
| 2026-04-20 12:39 | -38.76786 | 143.66482 | 413 ft | 64 kts | 198° |
| 2026-04-20 12:39 | -38.77092 | 143.66304 | 303 ft | 28 kts | 196° |
| 2026-04-20 12:39 | -38.77173 | 143.66300 | 287 ft | 9 kts | 194° |
| 2026-04-20 12:40 | -38.77235 | 143.66300 | 287 ft | 8 kts | 194° |
| 2026-04-20 12:40 | -38.77322 | 143.66170 | 151 ft | 41 kts | 245° |
| 2026-04-20 12:40 | -38.77277 | 143.65777 | 140 ft | 44 kts | 288° |
| 2026-04-20 12:40 | -38.77233 | 143.65495 | 100 ft | 6 kts | 289° |
| 2026-04-20 12:41 | -38.77229 | 143.65461 | 104 ft | 10 kts | 292° |
| 2026-04-20 12:41 | -38.77199 | 143.65430 | 95 ft | 4 kts | 293° |
| 2026-04-20 12:41 | -38.77177 | 143.65413 | 84 ft | 2 kts | 292° |
| 2026-04-20 12:41 | -38.77172 | 143.65413 | 69 ft | 1 kts | 291° |
| 2026-04-20 12:42 | -38.77172 | 143.65414 | 68 ft | 0 kts | 289° |